createdAt,value
2018-06-15T00:00:08.351Z,17.90
2018-06-15T00:02:37.303Z,17.80
2018-06-15T00:05:06.327Z,17.80
2018-06-15T00:07:35.191Z,17.80
2018-06-15T00:10:04.258Z,17.70
2018-06-15T00:12:33.660Z,17.70
2018-06-15T00:15:02.618Z,17.70
2018-06-15T00:17:31.475Z,17.60
2018-06-15T00:20:00.395Z,17.60
2018-06-15T00:22:29.187Z,17.60
2018-06-15T00:24:58.039Z,17.60
2018-06-15T00:29:56.263Z,17.60
2018-06-15T00:32:25.126Z,17.60
2018-06-15T00:39:52.348Z,17.60
2018-06-15T00:42:21.271Z,17.60
2018-06-15T00:44:50.147Z,17.60
2018-06-15T00:47:19.011Z,17.60
2018-06-15T00:49:47.904Z,17.60
2018-06-15T00:52:16.749Z,17.60
2018-06-15T00:57:31.323Z,17.50
2018-06-15T01:00:00.286Z,17.50
2018-06-15T01:02:29.136Z,17.50
2018-06-15T01:04:58.038Z,17.50
2018-06-15T01:07:26.879Z,17.50
2018-06-15T01:09:55.810Z,17.30
2018-06-15T01:12:24.663Z,17.30
2018-06-15T01:14:53.515Z,17.30
2018-06-15T01:17:22.384Z,17.30
2018-06-15T01:19:51.264Z,17.30
2018-06-15T01:22:20.119Z,17.30
2018-06-15T01:24:48.990Z,17.20
2018-06-15T01:27:17.951Z,17.30
2018-06-15T01:29:47.095Z,17.30
2018-06-15T01:32:15.903Z,17.30
2018-06-15T01:37:13.483Z,17.30
2018-06-15T01:42:11.240Z,17.30
2018-06-15T01:44:40.083Z,17.20
2018-06-15T01:47:08.918Z,17.30
2018-06-15T01:49:37.861Z,17.30
2018-06-15T01:52:06.778Z,17.40
2018-06-15T01:54:35.647Z,17.40
2018-06-15T01:57:04.505Z,17.30
2018-06-15T02:02:02.187Z,17.20
2018-06-15T02:06:59.806Z,17.30
2018-06-15T02:09:28.676Z,17.20
2018-06-15T02:11:57.546Z,17.30
2018-06-15T02:14:26.396Z,17.30
2018-06-15T02:16:55.244Z,17.30
2018-06-15T02:19:24.123Z,17.40
2018-06-15T02:21:52.983Z,17.50
2018-06-15T02:24:21.899Z,17.50
2018-06-15T02:29:19.919Z,17.30
2018-06-15T02:31:48.847Z,17.30
2018-06-15T02:34:17.693Z,17.30
2018-06-15T02:36:46.560Z,17.30
2018-06-15T02:41:44.252Z,17.20
2018-06-15T02:44:13.099Z,17.20
2018-06-15T02:46:41.961Z,17.20
2018-06-15T02:49:10.811Z,17.20
2018-06-15T02:51:39.760Z,17.20
2018-06-15T02:54:08.630Z,17.30
2018-06-15T02:56:37.551Z,17.30
2018-06-15T02:59:07.415Z,17.30
2018-06-15T03:01:36.253Z,17.30
2018-06-15T03:04:05.104Z,17.30
2018-06-15T03:06:34.023Z,17.20
2018-06-15T03:09:04.431Z,17.30
2018-06-15T03:11:33.275Z,17.30
2018-06-15T03:16:30.883Z,17.40
2018-06-15T03:18:59.768Z,17.30
2018-06-15T03:21:28.592Z,17.30
2018-06-15T03:23:57.435Z,17.30
2018-06-15T03:26:26.262Z,17.30
2018-06-15T03:28:55.116Z,17.30
2018-06-15T03:31:24.027Z,17.40
2018-06-15T03:33:52.851Z,17.30
2018-06-15T03:36:21.698Z,17.40
2018-06-15T03:38:50.579Z,17.30
2018-06-15T03:46:19.960Z,17.40
2018-06-15T03:48:48.925Z,17.40
2018-06-15T03:51:17.749Z,17.50
2018-06-15T03:56:15.387Z,17.40
2018-06-15T03:58:44.265Z,17.40
2018-06-15T04:01:13.829Z,17.50
2018-06-15T04:03:42.819Z,17.50
2018-06-15T04:06:11.709Z,17.50
2018-06-15T04:08:40.658Z,17.60
2018-06-15T04:11:09.487Z,17.60
2018-06-15T04:13:38.379Z,17.60
2018-06-15T04:16:07.458Z,17.70
2018-06-15T04:18:36.426Z,17.70
2018-06-15T04:21:05.816Z,17.80
2018-06-15T04:23:34.683Z,17.80
2018-06-15T04:28:32.291Z,17.50
2018-06-15T04:31:01.290Z,17.50
2018-06-15T04:33:30.166Z,17.50
2018-06-15T04:35:59.023Z,17.60
2018-06-15T04:38:28.107Z,17.60
2018-06-15T04:40:56.948Z,17.60
2018-06-15T04:43:25.846Z,17.60
2018-06-15T04:45:54.706Z,17.60
2018-06-15T04:50:52.360Z,17.70
2018-06-15T04:53:21.250Z,17.80
2018-06-15T04:55:50.463Z,17.90
2018-06-15T04:58:19.443Z,17.90
2018-06-15T05:03:17.213Z,17.90
2018-06-15T05:05:46.033Z,17.90
2018-06-15T05:10:44.191Z,17.80
2018-06-15T05:13:13.075Z,17.90
2018-06-15T05:15:41.940Z,17.90
2018-06-15T05:18:10.775Z,17.90
2018-06-15T05:20:39.630Z,17.90
2018-06-15T05:23:08.897Z,17.90
2018-06-15T05:25:38.163Z,17.90
2018-06-15T05:28:07.336Z,17.90
2018-06-15T05:30:36.268Z,17.90
2018-06-15T05:33:05.690Z,18.00
2018-06-15T05:35:34.825Z,18.00
2018-06-15T05:38:04.017Z,18.00
2018-06-15T05:40:32.907Z,18.00
2018-06-15T05:43:01.920Z,18.10
2018-06-15T05:45:31.624Z,18.10
2018-06-15T05:48:00.563Z,18.20
2018-06-15T05:50:29.503Z,18.20
2018-06-15T05:52:58.339Z,18.20
2018-06-15T05:57:56.535Z,18.30
2018-06-15T06:00:25.468Z,18.30
2018-06-15T06:02:54.572Z,18.30
2018-06-15T06:05:23.436Z,18.30
2018-06-15T06:07:52.619Z,18.30
2018-06-15T06:10:21.952Z,18.30
2018-06-15T06:12:51.310Z,18.40
2018-06-15T06:15:20.212Z,18.40
2018-06-15T06:20:18.588Z,18.40
2018-06-15T06:22:47.463Z,18.50
2018-06-15T06:25:16.332Z,18.50
2018-06-15T06:27:45.198Z,18.50
2018-06-15T06:30:14.105Z,18.50
2018-06-15T06:32:43.076Z,18.30
2018-06-15T06:35:11.851Z,18.20
2018-06-15T06:37:40.734Z,18.20
2018-06-15T06:40:09.622Z,18.20
2018-06-15T06:42:38.511Z,18.20
2018-06-15T06:45:07.403Z,18.30
2018-06-15T06:50:05.656Z,18.40
2018-06-15T06:52:34.641Z,18.40
2018-06-15T06:55:03.668Z,18.50
2018-06-15T06:57:32.766Z,18.50
2018-06-15T07:00:01.660Z,18.60
2018-06-15T07:04:59.320Z,18.60
2018-06-15T07:07:28.176Z,18.70
2018-06-15T07:09:57.028Z,18.60
2018-06-15T07:14:55.976Z,18.60
2018-06-15T07:17:24.802Z,18.70
2018-06-15T07:22:22.407Z,18.90
2018-06-15T07:24:51.258Z,18.90
2018-06-15T07:27:20.569Z,18.90
2018-06-15T07:29:49.400Z,18.90
2018-06-15T07:32:18.236Z,18.90
2018-06-15T07:34:47.083Z,18.90
2018-06-15T07:37:15.939Z,18.90
2018-06-15T07:42:13.528Z,19.00
2018-06-15T07:44:42.360Z,19.00
2018-06-15T07:47:11.923Z,19.00
2018-06-15T07:49:40.803Z,19.10
2018-06-15T07:54:38.385Z,19.20
2018-06-15T07:59:36.015Z,19.40
2018-06-15T08:02:04.875Z,19.50
2018-06-15T08:04:33.732Z,19.50
2018-06-15T08:07:02.568Z,19.60
2018-06-15T08:09:31.431Z,19.70
2018-06-15T08:12:00.292Z,19.70
2018-06-15T08:14:29.132Z,19.80
2018-06-15T08:16:57.987Z,19.90
2018-06-15T08:21:55.616Z,20.00
2018-06-15T08:24:24.554Z,20.10
2018-06-15T08:26:53.432Z,20.10
2018-06-15T08:29:22.293Z,20.20
2018-06-15T08:31:51.170Z,20.20
2018-06-15T08:34:19.999Z,20.30
2018-06-15T08:39:17.620Z,20.30
2018-06-15T08:41:46.471Z,20.30
2018-06-15T08:46:44.155Z,20.50
2018-06-15T08:49:13.032Z,20.50
2018-06-15T08:51:41.903Z,20.50
2018-06-15T08:54:10.738Z,20.60
2018-06-15T08:56:39.604Z,20.60
2018-06-15T08:59:08.477Z,20.60
2018-06-15T09:01:37.306Z,20.70
2018-06-15T09:06:34.904Z,20.80
2018-06-15T09:09:06.277Z,20.80
2018-06-15T09:11:35.167Z,20.90
2018-06-15T09:14:04.051Z,20.90
2018-06-15T09:16:32.882Z,21.10
2018-06-15T09:19:01.919Z,21.10
2018-06-15T09:23:59.492Z,21.40
2018-06-15T09:26:28.356Z,21.50
2018-06-15T09:31:26.071Z,21.40
2018-06-15T09:33:55.165Z,21.40
2018-06-15T09:36:24.107Z,21.40
2018-06-15T09:38:53.070Z,21.40
2018-06-15T09:41:21.963Z,21.40
2018-06-15T09:43:50.794Z,21.40
2018-06-15T09:46:19.707Z,21.40
2018-06-15T09:48:48.717Z,21.40
2018-06-15T09:51:17.550Z,21.40
2018-06-15T09:53:47.333Z,21.50
2018-06-15T09:56:16.169Z,21.50
2018-06-15T09:58:45.579Z,21.60
2018-06-15T10:01:14.765Z,21.60
2018-06-15T10:03:43.679Z,21.60
2018-06-15T10:06:12.574Z,21.70
2018-06-15T10:08:41.948Z,21.70
2018-06-15T10:11:11.095Z,21.90
2018-06-15T10:13:40.397Z,22.00
2018-06-15T10:16:09.703Z,22.00
2018-06-15T10:23:37.268Z,22.10
2018-06-15T10:26:06.463Z,22.10
2018-06-15T10:28:37.555Z,22.10
2018-06-15T10:31:06.883Z,22.10
2018-06-15T10:33:36.108Z,22.00
2018-06-15T10:36:05.297Z,22.10
2018-06-15T10:38:34.560Z,22.10
2018-06-15T10:41:03.412Z,22.10
2018-06-15T10:43:32.428Z,22.20
2018-06-15T10:46:01.382Z,22.20
2018-06-15T10:48:30.500Z,22.30
2018-06-15T10:50:59.367Z,22.30
2018-06-15T10:55:57.488Z,22.20
2018-06-15T10:58:28.428Z,22.10
2018-06-15T11:00:57.648Z,22.10
2018-06-15T11:03:26.515Z,22.10
2018-06-15T11:05:55.680Z,22.00
2018-06-15T11:08:24.786Z,22.00
2018-06-15T11:10:53.706Z,22.00
2018-06-15T11:13:22.641Z,21.90
2018-06-15T11:15:51.487Z,21.90
2018-06-15T11:18:21.125Z,21.90
2018-06-15T11:20:50.028Z,21.90
2018-06-15T11:23:18.924Z,21.90
2018-06-15T11:25:47.843Z,21.90
2018-06-15T11:28:16.429Z,22.00
2018-06-15T11:30:45.418Z,21.90
2018-06-15T11:33:14.296Z,21.80
2018-06-15T11:35:43.153Z,21.80
2018-06-15T11:38:11.976Z,21.80
2018-06-15T11:40:40.836Z,21.80
2018-06-15T11:43:09.675Z,21.90
2018-06-15T11:45:38.560Z,22.00
2018-06-15T11:48:07.496Z,22.10
2018-06-15T11:50:36.428Z,22.20
2018-06-15T11:55:34.027Z,22.40
2018-06-15T11:58:02.882Z,22.50
2018-06-15T12:00:31.923Z,22.60
2018-06-15T12:03:00.803Z,22.60
2018-06-15T12:05:29.643Z,22.60
2018-06-15T12:07:58.554Z,22.70
2018-06-15T12:10:27.476Z,22.70
2018-06-15T12:12:56.316Z,22.70
2018-06-15T12:15:25.192Z,22.70
2018-06-15T12:17:54.162Z,22.70
2018-06-15T12:20:23.000Z,22.70
2018-06-15T12:22:51.860Z,22.70
2018-06-15T12:25:20.712Z,22.70
2018-06-15T12:30:20.573Z,22.70
2018-06-15T12:32:49.709Z,22.60
2018-06-15T12:35:18.672Z,22.60
2018-06-15T12:37:47.524Z,22.70
2018-06-15T12:40:16.384Z,22.60
2018-06-15T12:42:45.304Z,22.60
2018-06-15T12:45:14.518Z,22.60
2018-06-15T12:47:43.704Z,22.60
2018-06-15T12:50:12.547Z,22.60
2018-06-15T12:55:10.261Z,22.60
2018-06-15T12:57:39.103Z,22.60
2018-06-15T13:00:08.400Z,22.60
2018-06-15T13:02:37.676Z,22.60
2018-06-15T13:05:06.552Z,22.60
2018-06-15T13:07:35.376Z,22.60
2018-06-15T13:10:04.678Z,22.60
2018-06-15T13:12:33.547Z,22.60
2018-06-15T13:15:02.504Z,22.50
2018-06-15T13:17:31.611Z,22.60
2018-06-15T13:20:00.516Z,22.60
2018-06-15T13:22:29.366Z,22.60
2018-06-15T13:24:58.275Z,22.60
2018-06-15T13:27:27.671Z,22.70
2018-06-15T13:34:55.149Z,22.60
2018-06-15T13:37:24.547Z,22.60
2018-06-15T13:39:53.857Z,22.60
2018-06-15T13:42:23.717Z,22.60
2018-06-15T13:44:53.268Z,22.70
2018-06-15T13:47:22.155Z,22.70
2018-06-15T13:49:51.205Z,22.70
2018-06-15T13:52:21.015Z,22.70
2018-06-15T13:57:19.942Z,22.70
2018-06-15T13:59:49.276Z,22.70
2018-06-15T14:02:18.167Z,22.70
2018-06-15T14:04:47.023Z,22.70
2018-06-15T14:07:15.855Z,22.60
2018-06-15T14:09:44.768Z,22.50
2018-06-15T14:12:13.663Z,22.50
2018-06-15T14:14:42.491Z,22.50
2018-06-15T14:17:11.324Z,22.50
2018-06-15T14:19:40.229Z,22.50
2018-06-15T14:22:09.892Z,22.50
2018-06-15T14:24:39.015Z,22.50
2018-06-15T14:27:08.135Z,22.50
2018-06-15T14:29:37.127Z,22.60
2018-06-15T14:32:05.971Z,22.70
2018-06-15T14:34:34.887Z,22.70
2018-06-15T14:37:04.296Z,22.60
2018-06-15T14:42:02.364Z,22.60
2018-06-15T14:44:31.203Z,22.70
2018-06-15T14:47:00.587Z,22.70
2018-06-15T14:51:58.895Z,22.80
2018-06-15T14:54:28.129Z,22.80
2018-06-15T14:56:57.336Z,22.80
2018-06-15T14:59:26.640Z,22.80
2018-06-15T15:01:55.583Z,22.80
2018-06-15T15:04:24.968Z,22.80
2018-06-15T15:06:54.212Z,22.70
2018-06-15T15:09:23.335Z,22.70
2018-06-15T15:11:52.304Z,22.70
2018-06-15T15:14:21.631Z,22.60
2018-06-15T15:16:51.055Z,22.60
2018-06-15T15:19:20.293Z,22.60
2018-06-15T15:21:49.168Z,22.50
2018-06-15T15:24:18.789Z,22.60
2018-06-15T15:26:48.225Z,22.60
2018-06-15T15:29:17.503Z,22.60
2018-06-15T15:34:15.892Z,22.60
2018-06-15T15:36:45.462Z,22.60
2018-06-15T15:39:15.763Z,22.60
2018-06-15T15:41:44.790Z,22.50
2018-06-15T15:44:13.915Z,22.50
2018-06-15T15:46:42.905Z,22.60
2018-06-15T15:49:12.332Z,22.70
2018-06-15T15:51:41.227Z,22.80
2018-06-15T15:54:10.055Z,22.90
2018-06-15T15:56:39.432Z,22.90
2018-06-15T15:59:08.439Z,23.00
2018-06-15T16:01:37.913Z,23.20
2018-06-15T16:04:06.802Z,23.20
2018-06-15T16:06:36.247Z,23.20
2018-06-15T16:09:07.224Z,23.30
2018-06-15T16:14:08.515Z,23.50
2018-06-15T16:16:37.403Z,23.60
2018-06-15T16:19:07.043Z,23.70
2018-06-15T16:21:36.273Z,23.60
2018-06-15T16:24:05.218Z,23.70
2018-06-15T16:26:34.777Z,23.80
2018-06-15T16:29:04.005Z,24.00
2018-06-15T16:31:33.065Z,24.00
2018-06-15T16:34:01.991Z,24.00
2018-06-15T16:39:00.559Z,23.60
2018-06-15T16:41:29.986Z,23.60
2018-06-15T16:43:59.019Z,23.50
2018-06-15T16:46:27.794Z,23.50
2018-06-15T16:48:56.684Z,23.50
2018-06-15T16:51:25.539Z,23.50
2018-06-15T16:53:54.406Z,23.40
2018-06-15T16:56:23.346Z,23.40
2018-06-15T16:58:52.308Z,23.40
2018-06-15T17:01:21.124Z,23.30
2018-06-15T17:03:50.439Z,23.20
2018-06-15T17:06:19.404Z,23.20
2018-06-15T17:08:49.042Z,23.10
2018-06-15T17:11:18.344Z,23.10
2018-06-15T17:13:47.300Z,23.00
2018-06-15T17:16:16.144Z,22.90
2018-06-15T17:18:45.528Z,22.90
2018-06-15T17:21:14.472Z,22.80
2018-06-15T17:23:43.791Z,22.80
2018-06-15T17:26:12.867Z,22.70
2018-06-15T17:28:42.553Z,22.60
2018-06-15T17:31:11.679Z,22.60
2018-06-15T17:33:41.072Z,22.50
2018-06-15T17:36:09.996Z,22.40
2018-06-15T17:38:39.548Z,22.30
2018-06-15T17:41:08.427Z,22.30
2018-06-15T17:43:37.756Z,22.20
2018-06-15T17:46:06.951Z,22.20
2018-06-15T17:48:36.289Z,22.10
2018-06-15T17:51:05.285Z,22.10
2018-06-15T17:53:34.080Z,22.10
2018-06-15T17:58:32.717Z,21.90
2018-06-15T18:01:01.721Z,21.90
2018-06-15T18:03:30.784Z,21.80
2018-06-15T18:06:00.283Z,21.70
2018-06-15T18:08:29.280Z,21.60
2018-06-15T18:10:58.111Z,21.60
2018-06-15T18:13:26.970Z,21.50
2018-06-15T18:15:56.224Z,21.50
2018-06-15T18:18:25.466Z,21.40
2018-06-15T18:20:54.296Z,21.40
2018-06-15T18:23:23.640Z,21.30
2018-06-15T18:25:53.199Z,21.30
2018-06-15T18:28:22.396Z,21.30
2018-06-15T18:30:51.931Z,21.20
2018-06-15T18:33:21.160Z,21.10
2018-06-15T18:35:50.079Z,21.00
2018-06-15T18:38:19.477Z,21.00
2018-06-15T18:40:48.836Z,20.90
2018-06-15T18:43:18.930Z,20.90
2018-06-15T18:45:48.420Z,20.80
2018-06-15T18:50:46.372Z,20.60
2018-06-15T18:53:15.711Z,20.50
2018-06-15T18:55:44.988Z,20.50
2018-06-15T18:58:13.910Z,20.40
2018-06-15T19:00:42.944Z,20.40
2018-06-15T19:03:11.867Z,20.30
2018-06-15T19:05:40.737Z,20.20
2018-06-15T19:08:09.595Z,20.10
2018-06-15T19:10:38.528Z,20.10
2018-06-15T19:13:08.272Z,20.00
2018-06-15T19:15:37.468Z,20.00
2018-06-15T19:18:06.607Z,19.80
2018-06-15T19:20:35.876Z,19.70
2018-06-15T19:23:04.947Z,19.60
2018-06-15T19:25:34.139Z,19.60
2018-06-15T19:28:03.563Z,19.50
2018-06-15T19:30:32.668Z,19.50
2018-06-15T19:33:02.632Z,19.50
2018-06-15T19:35:31.600Z,19.50
2018-06-15T19:38:00.410Z,19.50
2018-06-15T19:40:29.865Z,19.40
2018-06-15T19:42:58.767Z,19.40
2018-06-15T19:45:27.686Z,19.30
2018-06-15T19:47:56.967Z,19.20
2018-06-15T19:50:26.444Z,19.10
2018-06-15T19:52:55.565Z,19.10
2018-06-15T19:55:25.216Z,19.10
2018-06-15T19:57:54.311Z,19.00
2018-06-15T20:00:23.300Z,19.00
2018-06-15T20:02:52.535Z,18.90
2018-06-15T20:05:22.424Z,18.90
2018-06-15T20:07:51.782Z,18.80
2018-06-15T20:10:21.333Z,18.80
2018-06-15T20:12:50.744Z,18.70
2018-06-15T20:15:19.659Z,18.80
2018-06-15T20:17:48.956Z,18.70
2018-06-15T20:20:18.330Z,18.70
2018-06-15T20:25:16.096Z,18.60
2018-06-15T20:27:44.977Z,18.60
2018-06-15T20:30:14.702Z,18.60
2018-06-15T20:35:13.776Z,18.50
2018-06-15T20:37:42.956Z,18.50
2018-06-15T20:40:12.249Z,18.40
2018-06-15T20:42:42.087Z,18.50
2018-06-15T20:45:11.167Z,18.40
2018-06-15T20:47:40.067Z,18.40
2018-06-15T20:50:08.979Z,18.40
2018-06-15T20:52:37.839Z,18.30
2018-06-15T20:55:06.743Z,18.30
2018-06-15T20:57:35.582Z,18.30
2018-06-15T21:00:05.140Z,18.30
2018-06-15T21:05:02.702Z,18.30
2018-06-15T21:10:00.435Z,18.20
2018-06-15T21:12:29.267Z,18.20
2018-06-15T21:14:58.180Z,18.20
2018-06-15T21:17:27.035Z,18.20
2018-06-15T21:19:56.059Z,18.20
2018-06-15T21:22:24.931Z,18.10
2018-06-15T21:24:53.779Z,18.20
2018-06-15T21:27:22.685Z,18.20
2018-06-15T21:29:52.399Z,18.10
2018-06-15T21:32:21.268Z,18.10
2018-06-15T21:34:50.150Z,18.10
2018-06-15T21:37:19.020Z,18.10
2018-06-15T21:39:47.945Z,18.10
2018-06-15T21:42:16.767Z,18.10
2018-06-15T21:44:45.593Z,18.10
2018-06-15T21:47:14.420Z,18.10
2018-06-15T21:49:43.250Z,18.10
2018-06-15T21:52:12.123Z,18.10
2018-06-15T21:54:40.969Z,18.10
2018-06-15T21:57:09.822Z,18.10
2018-06-15T21:59:38.757Z,18.10
2018-06-15T22:02:07.642Z,18.00
2018-06-15T22:04:36.537Z,18.10
2018-06-15T22:07:05.376Z,18.00
2018-06-15T22:09:34.289Z,18.00
2018-06-15T22:14:31.906Z,18.00
2018-06-15T22:17:00.751Z,18.00
2018-06-15T22:21:58.422Z,18.00
2018-06-15T22:26:56.240Z,18.00
2018-06-15T22:29:25.137Z,18.00
2018-06-15T22:31:53.954Z,18.00
2018-06-15T22:34:22.786Z,18.00
2018-06-15T22:39:20.392Z,18.00
2018-06-15T22:41:49.232Z,17.90
2018-06-15T22:44:18.099Z,18.00
2018-06-15T22:46:46.959Z,18.00
2018-06-15T22:51:45.847Z,17.90
2018-06-15T22:56:43.370Z,17.80
2018-06-15T22:59:12.287Z,17.80
2018-06-15T23:01:41.132Z,17.80
2018-06-15T23:04:10.068Z,17.70
2018-06-15T23:06:39.176Z,17.70
2018-06-15T23:09:10.179Z,17.70
2018-06-15T23:11:39.588Z,17.70
2018-06-15T23:14:08.998Z,17.80
2018-06-15T23:16:37.918Z,17.70
2018-06-15T23:19:06.990Z,17.80
2018-06-15T23:21:36.080Z,17.80
2018-06-15T23:24:05.038Z,17.80
2018-06-15T23:26:33.991Z,17.70
2018-06-15T23:29:02.945Z,17.70
2018-06-15T23:31:31.837Z,17.70
2018-06-15T23:34:01.022Z,17.70
2018-06-15T23:36:29.847Z,17.80
2018-06-15T23:38:58.788Z,17.80
2018-06-15T23:41:27.790Z,17.80
2018-06-15T23:43:56.771Z,17.80
2018-06-15T23:46:25.599Z,17.70
2018-06-15T23:48:54.519Z,17.70
2018-06-15T23:53:52.131Z,17.80
2018-06-15T23:56:21.020Z,17.80
2018-06-15T23:58:49.990Z,17.70
